Time;durP1;ratioP1;P1;durP2;ratioP2;P2;SDS_P1;SDS_P2;PMS_P1;PMS_P2;Temp;Humidity;BMP_temperature;BMP_pressure;BME280_temperature;BME280_humidity;BME280_pressure;Samples;Min_cycle;Max_cycle;Signal;HPM_P1;HPM_P2
2022/06/11 00:00:24;;;;;;;10.23;7.20;;;16.20;99.90;;;;;;5009751;28;20041;-40
2022/06/11 00:02:50;;;;;;;9.32;7.50;;;16.10;99.90;;;;;;5008462;28;20041;-40
2022/06/11 00:05:16;;;;;;;9.30;7.53;;;16.40;99.90;;;;;;5009772;28;20084;-39
2022/06/11 00:07:42;;;;;;;10.38;7.75;;;15.90;99.90;;;;;;5010041;28;20149;-40
2022/06/11 00:10:09;;;;;;;12.57;9.27;;;16.20;99.90;;;;;;5009110;28;20120;-40
2022/06/11 00:12:35;;;;;;;12.85;9.45;;;16.10;99.90;;;;;;5010055;28;20096;-40
2022/06/11 00:15:03;;;;;;;12.55;9.82;;;15.90;99.90;;;;;;5009847;28;20086;-39
2022/06/11 00:17:28;;;;;;;16.20;9.82;;;16.10;99.90;;;;;;5009832;28;20085;-40
2022/06/11 00:19:55;;;;;;;21.40;11.15;;;16.10;99.90;;;;;;5009774;28;20084;-41
2022/06/11 00:22:22;;;;;;;14.95;9.77;;;16.10;99.90;;;;;;5009752;28;20085;-42
2022/06/11 00:24:48;;;;;;;15.48;10.35;;;16.10;99.90;;;;;;5008294;28;20057;-41
2022/06/11 00:27:16;;;;;;;12.20;7.60;;;16.10;99.90;;;;;;5009676;28;20058;-40
2022/06/11 00:29:43;;;;;;;9.23;5.63;;;16.10;99.90;;;;;;5009611;28;20046;-39
2022/06/11 00:32:10;;;;;;;9.30;5.22;;;16.00;99.90;;;;;;5009106;28;20548;-40
2022/06/11 00:34:37;;;;;;;9.85;4.53;;;15.90;99.90;;;;;;5009368;28;20045;-40
2022/06/11 00:37:03;;;;;;;8.90;3.65;;;15.80;99.90;;;;;;5009205;28;20127;-42
2022/06/11 00:39:33;;;;;;;6.97;3.20;;;15.80;99.90;;;;;;5009349;28;20053;-41
2022/06/11 00:42:05;;;;;;;10.00;3.33;;;16.00;99.90;;;;;;5009143;28;20124;-40
2022/06/11 00:44:31;;;;;;;10.57;4.68;;;15.60;99.90;;;;;;5009456;28;20053;-41
2022/06/11 00:47:04;;;;;;;6.45;3.47;;;15.50;99.90;;;;;;5009069;28;20184;-40
2022/06/11 00:49:41;;;;;;;6.22;4.57;;;15.40;99.90;;;;;;5009351;28;20044;-40
2022/06/11 00:52:23;;;;;;;6.38;4.07;;;15.30;99.90;;;;;;5008565;28;20137;-39
2022/06/11 00:55:14;;;;;;;9.98;4.22;;;15.20;99.90;;;;;;5009419;28;20100;-39
2022/06/11 00:57:46;;;;;;;12.10;4.43;;;15.10;99.90;;;;;;5009058;28;20052;-39
2022/06/11 01:00:24;;;;;;;11.15;4.28;;;15.00;99.90;;;;;;5008731;28;20050;-40
2022/06/11 01:02:50;;;;;;;7.55;4.20;;;14.90;99.90;;;;;;5007933;28;20041;-40
2022/06/11 01:05:25;;;;;;;9.32;5.35;;;14.80;99.90;;;;;;5009184;28;20374;-40
2022/06/11 01:08:09;;;;;;;10.27;4.70;;;14.80;99.90;;;;;;5009288;28;20054;-40
2022/06/11 01:10:56;;;;;;;10.10;5.10;;;14.60;99.90;;;;;;5008580;28;20393;-39
2022/06/11 01:13:31;;;;;;;8.90;5.20;;;14.50;99.90;;;;;;5008756;28;20258;-39
2022/06/11 01:16:02;;;;;;;14.10;6.10;;;14.30;99.90;;;;;;5008550;28;20045;-39
2022/06/11 01:19:05;;;;;;;13.25;5.93;;;14.20;99.90;;;;;;5008869;28;20050;-39
2022/06/11 01:22:00;;;;;;;9.90;5.90;;;14.00;99.90;;;;;;5008698;28;20081;-39
2022/06/11 01:24:52;;;;;;;11.63;6.13;;;14.60;99.90;;;;;;5008630;28;20046;-40
2022/06/11 01:27:36;;;;;;;9.45;6.32;;;13.80;99.90;;;;;;5008493;28;20184;-39
2022/06/11 01:30:37;;;;;;;15.05;6.28;;;13.70;99.90;;;;;;5008734;28;20038;-40
2022/06/11 01:33:12;;;;;;;9.88;6.28;;;13.60;99.90;;;;;;5007794;28;20057;-40
2022/06/11 01:35:38;;;;;;;14.48;6.90;;;13.60;99.90;;;;;;5008683;28;20151;-40
2022/06/11 01:38:14;;;;;;;11.15;6.75;;;14.00;99.90;;;;;;5008415;28;20481;-39
2022/06/11 01:40:49;;;;;;;11.18;6.50;;;13.60;99.90;;;;;;5008254;28;20069;-40
2022/06/11 01:43:44;;;;;;;14.50;7.70;;;13.70;99.90;;;;;;5008004;28;20049;-39
2022/06/11 01:46:17;;;;;;;10.27;7.28;;;13.60;99.90;;;;;;5007866;28;20160;-39
2022/06/11 01:49:03;;;;;;;14.18;8.25;;;14.20;99.90;;;;;;5008728;28;20046;-40
2022/06/11 01:51:48;;;;;;;11.20;7.53;;;13.70;99.90;;;;;;5008535;28;20092;-39
2022/06/11 01:54:35;;;;;;;12.00;8.30;;;13.70;99.90;;;;;;5008213;28;20049;-40
2022/06/11 01:57:28;;;;;;;10.63;8.23;;;13.70;99.90;;;;;;5008495;28;20045;-39
2022/06/11 02:00:07;;;;;;;11.27;8.30;;;13.70;99.90;;;;;;5008962;28;20390;-40
2022/06/11 02:02:47;;;;;;;9.32;7.50;;;14.10;99.90;;;;;;5008654;28;20045;-39
2022/06/11 02:05:24;;;;;;;10.02;7.95;;;13.70;99.90;;;;;;5011269;28;20493;-40
2022/06/11 02:08:23;;;;;;;12.55;7.72;;;13.90;99.90;;;;;;5012532;28;20049;-40
2022/06/11 02:11:00;;;;;;;9.93;6.82;;;13.50;99.90;;;;;;5011700;28;20042;-39
2022/06/11 02:13:41;;;;;;;17.45;7.60;;;13.30;99.90;;;;;;5012300;28;20041;-39
2022/06/11 02:16:34;;;;;;;10.48;7.35;;;13.30;99.90;;;;;;5012092;28;20041;-39
2022/06/11 02:19:05;;;;;;;13.68;7.63;;;13.30;99.90;;;;;;5011870;28;20050;-39
2022/06/11 02:21:36;;;;;;;10.02;6.72;;;13.50;99.90;;;;;;5011833;28;20046;-39
2022/06/11 02:24:11;;;;;;;10.30;6.93;;;13.40;99.90;;;;;;5011675;28;20038;-40
2022/06/11 02:26:42;;;;;;;11.55;7.28;;;13.20;99.90;;;;;;5012084;28;20042;-40
2022/06/11 02:29:10;;;;;;;15.33;8.10;;;13.40;99.90;;;;;;5010729;28;20519;-40
2022/06/11 02:31:43;;;;;;;14.65;8.75;;;13.10;99.90;;;;;;5011842;28;20284;-39
2022/06/11 02:34:09;;;;;;;15.27;8.98;;;13.40;99.90;;;;;;5012374;28;20052;-39
2022/06/11 02:37:20;;;;;;;21.10;11.25;;;13.40;99.90;;;;;;5011425;28;20041;-39
2022/06/11 02:39:46;;;;;;;22.40;13.98;;;13.50;99.90;;;;;;5010075;28;20056;-39
2022/06/11 02:42:17;;;;;;;21.85;15.27;;;13.40;99.90;;;;;;5011452;28;20077;-40
2022/06/11 02:44:43;;;;;;;22.08;15.35;;;13.40;99.90;;;;;;5011771;28;20374;-39
2022/06/11 02:47:10;;;;;;;22.10;15.30;;;13.50;99.90;;;;;;5011315;28;20487;-39
2022/06/11 02:49:37;;;;;;;32.10;17.63;;;13.60;99.90;;;;;;5010971;28;20034;-40
2022/06/11 02:52:11;;;;;;;22.40;16.77;;;13.90;99.90;;;;;;5011261;28;20080;-40
2022/06/11 02:54:37;;;;;;;24.73;15.77;;;13.70;99.90;;;;;;5011151;28;20037;-39
2022/06/11 02:57:04;;;;;;;26.55;15.98;;;13.90;99.90;;;;;;5011476;28;20060;-39
2022/06/11 02:59:30;;;;;;;23.92;17.10;;;13.40;99.90;;;;;;5011152;28;20383;-40
2022/06/11 03:01:56;;;;;;;21.92;16.05;;;13.80;99.90;;;;;;5011465;28;20089;-39
2022/06/11 03:04:24;;;;;;;19.63;16.27;;;13.50;99.90;;;;;;5010869;28;20049;-41
2022/06/11 03:06:50;;;;;;;24.13;15.75;;;13.50;99.90;;;;;;5010806;28;20045;-40
2022/06/11 03:09:21;;;;;;;21.77;15.15;;;14.60;99.90;;;;;;5011088;28;20069;-39
2022/06/11 03:11:47;;;;;;;20.42;14.43;;;13.50;99.90;;;;;;5011004;28;20107;-39
2022/06/11 03:14:14;;;;;;;21.08;14.15;;;13.60;99.90;;;;;;5011105;28;20049;-39
2022/06/11 03:16:40;;;;;;;27.10;14.75;;;13.80;99.90;;;;;;5009399;28;20066;-39
2022/06/11 03:19:07;;;;;;;19.65;13.60;;;13.30;99.90;;;;;;5011143;28;20096;-39
2022/06/11 03:21:33;;;;;;;25.27;13.88;;;13.60;99.90;;;;;;5010885;28;20081;-40
2022/06/11 03:23:59;;;;;;;22.95;15.13;;;13.60;99.90;;;;;;5011322;28;20409;-39
2022/06/11 03:26:25;;;;;;;24.75;15.20;;;13.30;99.90;;;;;;5010735;28;20049;-39
2022/06/11 03:28:51;;;;;;;19.63;14.25;;;13.20;99.90;;;;;;5011128;28;20410;-39
2022/06/11 03:31:17;;;;;;;23.52;15.18;;;13.30;99.90;;;;;;5009886;28;20049;-39
2022/06/11 03:33:43;;;;;;;23.98;15.10;;;13.50;99.90;;;;;;5010899;28;20060;-40
2022/06/11 03:36:11;;;;;;;19.65;15.43;;;13.50;99.90;;;;;;5010663;28;20041;-41
2022/06/11 03:38:38;;;;;;;21.85;15.38;;;13.30;99.90;;;;;;5009965;28;20038;-39
2022/06/11 03:41:05;;;;;;;21.55;14.90;;;13.20;99.90;;;;;;5010488;28;20049;-39
2022/06/11 03:43:31;;;;;;;18.85;13.32;;;13.40;99.90;;;;;;5010255;28;20120;-39
2022/06/11 03:45:58;;;;;;;19.55;14.40;;;13.20;99.90;;;;;;5010484;28;20037;-39
2022/06/11 03:48:28;;;;;;;19.50;14.13;;;13.20;99.90;;;;;;5009811;28;20092;-39
2022/06/11 03:50:56;;;;;;;21.30;14.38;;;13.50;99.90;;;;;;5010331;28;20045;-39
2022/06/11 03:53:22;;;;;;;22.60;15.60;;;13.30;99.90;;;;;;5010319;28;20096;-39
2022/06/11 03:55:48;;;;;;;17.98;14.77;;;13.10;99.90;;;;;;5010245;28;20037;-39
2022/06/11 03:58:14;;;;;;;23.33;16.35;;;13.10;99.90;;;;;;5010132;28;20084;-39
2022/06/11 04:03:26;;;;;;;27.75;15.18;;;13.20;99.90;;;;;;5010149;28;20060;-39
2022/06/11 04:05:53;;;;;;;20.80;14.35;;;13.20;99.90;;;;;;5008926;28;20049;-40
2022/06/11 04:08:22;;;;;;;16.92;14.75;;;13.20;99.90;;;;;;5009936;28;20052;-40
2022/06/11 04:10:48;;;;;;;24.25;15.90;;;13.50;99.90;;;;;;5009180;28;20048;-40
2022/06/11 04:13:14;;;;;;;23.65;15.90;;;13.50;99.90;;;;;;5010083;28;20042;-40
2022/06/11 04:15:42;;;;;;;21.88;15.60;;;13.40;99.90;;;;;;5009468;28;20046;-40
2022/06/11 04:18:17;;;;;;;22.05;14.95;;;13.50;99.90;;;;;;5009379;28;20056;-40
2022/06/11 04:20:42;;;;;;;22.70;14.18;;;13.90;99.90;;;;;;5009753;28;20057;-39
2022/06/11 04:23:08;;;;;;;21.40;13.63;;;13.90;99.90;;;;;;5009932;28;20099;-40
2022/06/11 04:25:34;;;;;;;14.43;10.73;;;14.10;99.90;;;;;;5009524;28;20136;-40
2022/06/11 04:28:00;;;;;;;13.13;9.73;;;14.90;99.90;;;;;;5009064;28;20081;-41
2022/06/11 04:30:25;;;;;;;13.48;8.30;;;16.90;99.90;;;;;;5009971;28;20042;-40
2022/06/11 04:32:51;;;;;;;11.43;7.50;;;16.90;99.90;;;;;;5009315;28;20045;-40
2022/06/11 04:35:17;;;;;;;12.43;7.65;;;16.90;99.90;;;;;;5009444;28;20098;-40
2022/06/11 04:37:45;;;;;;;10.05;6.50;;;17.00;99.90;;;;;;5009096;28;20046;-40
2022/06/11 04:40:12;;;;;;;10.13;7.80;;;16.60;99.90;;;;;;5009098;28;20481;-40
2022/06/11 04:42:38;;;;;;;11.18;6.13;;;16.40;99.90;;;;;;5008857;28;20576;-40
2022/06/11 04:45:05;;;;;;;8.32;6.00;;;16.20;99.90;;;;;;5009540;28;20049;-40
2022/06/11 04:47:31;;;;;;;12.75;7.13;;;16.10;99.90;;;;;;5008961;28;20056;-39
2022/06/11 04:50:00;;;;;;;11.23;5.40;;;15.90;99.90;;;;;;5009035;28;20130;-40
2022/06/11 04:52:27;;;;;;;10.52;5.40;;;15.90;99.90;;;;;;5007698;28;20046;-39
2022/06/11 04:54:53;;;;;;;11.15;4.88;;;15.90;99.90;;;;;;5008471;28;20041;-39
2022/06/11 04:57:19;;;;;;;9.82;4.97;;;15.90;99.90;;;;;;5008735;28;20527;-40
2022/06/11 04:59:46;;;;;;;15.65;5.13;;;15.90;99.90;;;;;;5008693;28;20052;-40
2022/06/11 05:02:11;;;;;;;11.60;4.45;;;16.20;99.90;;;;;;5008851;28;20042;-40
2022/06/11 05:04:37;;;;;;;11.43;4.88;;;16.00;99.90;;;;;;5008666;28;20052;-40
2022/06/11 05:07:04;;;;;;;13.30;5.10;;;16.20;99.90;;;;;;5008993;28;20046;-40
2022/06/11 05:09:30;;;;;;;10.98;3.70;;;16.10;99.90;;;;;;5008569;28;20048;-41
2022/06/11 05:11:57;;;;;;;14.02;4.28;;;16.20;99.90;;;;;;5008565;28;20053;-40
2022/06/11 05:14:24;;;;;;;9.30;3.47;;;16.40;99.90;;;;;;5008802;28;20038;-40
2022/06/11 05:16:50;;;;;;;12.38;3.58;;;16.50;99.90;;;;;;5008495;28;20065;-39
2022/06/11 05:19:18;;;;;;;11.63;3.38;;;16.50;99.90;;;;;;5008785;28;20438;-42
2022/06/11 05:21:45;;;;;;;10.55;3.63;;;16.60;99.90;;;;;;5008716;28;20038;-41
2022/06/11 05:24:11;;;;;;;12.23;3.35;;;16.70;99.90;;;;;;5008793;28;20054;-39
2022/06/11 05:26:45;;;;;;;11.38;2.80;;;16.90;99.90;;;;;;5008705;28;20190;-40
2022/06/11 05:29:22;;;;;;;9.93;2.80;;;17.00;99.90;;;;;;5008750;28;20092;-40
2022/06/11 05:31:48;;;;;;;11.93;3.83;;;17.30;99.90;;;;;;5008907;28;20041;-40
2022/06/11 05:34:14;;;;;;;8.23;2.00;;;17.80;99.90;;;;;;5008781;28;20038;-42
2022/06/11 05:36:40;;;;;;;10.90;2.63;;;17.90;99.90;;;;;;5008933;28;20030;-40
2022/06/11 05:39:05;;;;;;;12.48;2.28;;;18.30;99.90;;;;;;5010033;28;20053;-42
2022/06/11 05:41:31;;;;;;;9.73;1.98;;;18.60;99.90;;;;;;5012721;28;20042;-40
2022/06/11 05:43:57;;;;;;;9.70;2.45;;;18.80;99.90;;;;;;5012775;28;20626;-41
2022/06/11 05:46:25;;;;;;;12.45;2.50;;;19.10;99.90;;;;;;5013192;28;20440;-42
2022/06/11 05:48:58;;;;;;;10.95;2.63;;;19.40;99.90;;;;;;5012701;28;20038;-40
2022/06/11 05:51:38;;;;;;;12.27;2.40;;;19.80;99.90;;;;;;5012577;28;20140;-41
2022/06/11 05:54:08;;;;;;;13.05;2.15;;;19.90;99.90;;;;;;5012522;28;20413;-43
2022/06/11 05:56:34;;;;;;;11.77;2.53;;;19.90;99.90;;;;;;5012389;28;20042;-41
2022/06/11 05:59:02;;;;;;;9.23;1.40;;;20.00;99.90;;;;;;5011615;28;20046;-41
2022/06/11 06:01:32;;;;;;;10.25;1.52;;;20.10;99.90;;;;;;5012456;28;20077;-41
2022/06/11 06:03:57;;;;;;;12.38;2.13;;;20.10;99.90;;;;;;5012508;28;20046;-41
2022/06/11 06:06:23;;;;;;;11.18;3.47;;;20.10;99.90;;;;;;5012243;28;20052;-41
2022/06/11 06:08:49;;;;;;;8.00;2.53;;;20.20;99.90;;;;;;5011086;28;20065;-41
2022/06/11 06:11:14;;;;;;;13.65;2.28;;;20.50;99.90;;;;;;5012478;28;20128;-41
2022/06/11 06:13:46;;;;;;;9.00;1.90;;;20.70;99.90;;;;;;5011667;28;20107;-41
2022/06/11 06:16:24;;;;;;;10.40;2.35;;;20.80;99.90;;;;;;5011689;28;20052;-41
2022/06/11 06:18:51;;;;;;;11.82;2.42;;;21.20;99.10;;;;;;5011923;28;20185;-42
2022/06/11 06:21:20;;;;;;;11.40;3.05;;;21.50;98.70;;;;;;5011785;28;20497;-41
2022/06/11 06:23:46;;;;;;;10.68;2.28;;;22.00;97.80;;;;;;4993911;28;20132;-43
2022/06/11 06:26:12;;;;;;;14.52;2.53;;;22.20;96.40;;;;;;5012307;28;20130;-41
2022/06/11 06:28:38;;;;;;;13.93;2.42;;;22.60;95.70;;;;;;5011310;28;20255;-42
2022/06/11 06:31:05;;;;;;;14.35;2.58;;;24.00;93.90;;;;;;5011892;28;20065;-41
2022/06/11 06:33:32;;;;;;;12.02;2.80;;;24.50;91.90;;;;;;5011587;28;20578;-41
2022/06/11 06:35:59;;;;;;;10.95;2.53;;;24.40;91.00;;;;;;5011762;28;20042;-43
2022/06/11 06:38:25;;;;;;;12.95;2.47;;;24.60;89.40;;;;;;5011608;28;20046;-42
2022/06/11 06:40:50;;;;;;;14.60;2.50;;;24.80;87.00;;;;;;5011586;28;20567;-41
2022/06/11 06:43:16;;;;;;;13.93;2.72;;;24.90;87.30;;;;;;5011317;28;20048;-42
2022/06/11 06:45:42;;;;;;;9.57;1.85;;;26.40;84.20;;;;;;5011445;28;20046;-43
2022/06/11 06:48:08;;;;;;;13.68;2.80;;;26.80;82.10;;;;;;5011477;28;20042;-42
2022/06/11 06:50:34;;;;;;;8.07;1.73;;;27.20;80.60;;;;;;5011493;28;20076;-42
2022/06/11 06:52:59;;;;;;;11.40;2.25;;;27.40;78.50;;;;;;5026142;28;20077;-44
2022/06/11 06:55:25;;;;;;;11.40;2.20;;;26.80;76.70;;;;;;5011454;28;20088;-42
2022/06/11 06:57:51;;;;;;;9.85;2.33;;;26.30;75.50;;;;;;5010701;28;20045;-42
2022/06/11 07:00:23;;;;;;;10.02;2.05;;;25.60;76.30;;;;;;5011602;28;20084;-43
2022/06/11 07:02:49;;;;;;;10.40;3.05;;;25.70;76.40;;;;;;5011159;28;20046;-42
2022/06/11 07:05:17;;;;;;;16.63;2.33;;;27.60;77.90;;;;;;5011125;28;20053;-42
2022/06/11 07:07:43;;;;;;;13.25;2.40;;;26.50;75.70;;;;;;5011325;28;20421;-44
2022/06/11 07:10:10;;;;;;;10.60;2.25;;;27.40;74.90;;;;;;5011082;28;20041;-43
2022/06/11 07:12:35;;;;;;;10.77;2.15;;;28.20;73.50;;;;;;5011588;28;20042;-42
2022/06/11 07:15:01;;;;;;;11.35;2.50;;;28.70;70.50;;;;;;5011397;28;20040;-43
2022/06/11 07:17:32;;;;;;;11.50;2.40;;;29.10;69.10;;;;;;5010366;28;20643;-43
2022/06/11 07:20:04;;;;;;;10.48;2.40;;;29.70;68.50;;;;;;5010335;28;20152;-44
2022/06/11 07:22:42;;;;;;;10.05;2.67;;;30.80;66.40;;;;;;5010687;28;20073;-44
2022/06/11 07:25:09;;;;;;;14.13;3.25;;;31.50;64.80;;;;;;5010292;28;20053;-43
2022/06/11 07:27:40;;;;;;;13.27;3.13;;;32.20;62.90;;;;;;5010100;28;20053;-44
2022/06/11 07:30:15;;;;;;;11.40;2.97;;;32.30;61.30;;;;;;5009912;28;20485;-42
2022/06/11 07:32:44;;;;;;;12.90;2.65;;;32.60;60.60;;;;;;5010214;28;20421;-46
2022/06/11 07:35:13;;;;;;;11.15;2.30;;;33.00;59.10;;;;;;5009733;28;20489;-43
2022/06/11 07:37:40;;;;;;;11.05;2.47;;;32.90;58.50;;;;;;5010149;28;20510;-43
2022/06/11 07:40:08;;;;;;;10.98;2.03;;;32.20;58.50;;;;;;5009831;28;20050;-42
2022/06/11 07:42:34;;;;;;;10.93;2.47;;;33.00;58.80;;;;;;5010133;28;20042;-42
2022/06/11 07:44:59;;;;;;;11.05;2.17;;;33.00;58.20;;;;;;5010182;28;20048;-42
2022/06/11 07:50:12;;;;;;;12.68;2.50;;;32.00;58.10;;;;;;5009534;28;20504;-42
2022/06/11 07:52:41;;;;;;;17.38;3.30;;;31.80;58.40;;;;;;5009575;28;20545;-44
2022/06/11 07:55:08;;;;;;;11.70;3.08;;;31.10;57.90;;;;;;5009638;28;20100;-42
2022/06/11 07:57:34;;;;;;;14.60;3.20;;;31.80;58.10;;;;;;5009159;28;20053;-42
2022/06/11 08:00:00;;;;;;;14.00;2.53;;;32.50;58.30;;;;;;5009228;28;20046;-42
2022/06/11 08:02:26;;;;;;;13.32;2.97;;;32.60;57.10;;;;;;5008632;28;20041;-44
2022/06/11 08:04:52;;;;;;;13.45;2.83;;;33.40;56.50;;;;;;5009373;28;20099;-44
2022/06/11 08:07:18;;;;;;;10.82;2.63;;;34.10;55.80;;;;;;5009084;28;20429;-44
2022/06/11 08:09:44;;;;;;;16.05;3.22;;;34.30;55.10;;;;;;5009538;28;20049;-43
2022/06/11 08:12:10;;;;;;;13.77;3.72;;;34.70;55.00;;;;;;5009294;28;20042;-44
2022/06/11 08:14:35;;;;;;;12.55;3.67;;;35.30;53.30;;;;;;5009556;28;20057;-43
2022/06/11 08:17:02;;;;;;;12.25;3.25;;;34.60;52.90;;;;;;5009347;28;20579;-43
2022/06/11 08:19:28;;;;;;;12.90;2.90;;;33.20;53.00;;;;;;5009773;28;20136;-42
2022/06/11 08:21:56;;;;;;;11.75;3.28;;;31.50;53.80;;;;;;5009767;28;20053;-42
2022/06/11 08:24:22;;;;;;;11.35;2.90;;;30.00;55.50;;;;;;5009410;28;20045;-42
2022/06/11 08:26:48;;;;;;;10.23;2.33;;;29.20;57.40;;;;;;5009099;28;20061;-43
2022/06/11 08:29:13;;;;;;;12.90;2.95;;;29.30;58.60;;;;;;5008866;28;20050;-42
2022/06/11 08:31:39;;;;;;;16.77;3.85;;;29.60;58.80;;;;;;5009521;28;20099;-41
2022/06/11 08:34:05;;;;;;;10.48;2.33;;;29.50;58.80;;;;;;5009375;28;20421;-42
2022/06/11 08:36:30;;;;;;;15.45;3.10;;;30.40;58.90;;;;;;5009357;28;20041;-45
2022/06/11 08:38:56;;;;;;;10.93;2.85;;;31.10;57.40;;;;;;5009369;28;20508;-42
2022/06/11 08:41:27;;;;;;;11.77;2.60;;;31.60;56.70;;;;;;5009166;28;20046;-44
2022/06/11 08:43:59;;;;;;;11.40;2.75;;;31.20;56.50;;;;;;5009344;28;20041;-42
2022/06/11 08:46:29;;;;;;;10.57;1.75;;;30.00;55.70;;;;;;5009205;28;20121;-43
2022/06/11 08:49:04;;;;;;;11.32;3.25;;;30.30;56.20;;;;;;5009490;28;20523;-43
2022/06/11 08:51:45;;;;;;;13.80;2.65;;;31.30;56.90;;;;;;5008878;28;20042;-42
2022/06/11 08:54:33;;;;;;;16.30;2.72;;;32.20;56.10;;;;;;5009001;28;20085;-43
2022/06/11 08:57:11;;;;;;;11.60;2.88;;;33.50;55.90;;;;;;5008977;28;20385;-43
2022/06/11 09:00:05;;;;;;;9.88;2.15;;;34.70;54.40;;;;;;5009059;28;20046;-43
2022/06/11 09:02:55;;;;;;;9.98;2.40;;;35.00;53.80;;;;;;5008832;28;20104;-43
2022/06/11 09:05:43;;;;;;;9.33;2.50;;;35.50;52.50;;;;;;5008581;28;20178;-43
2022/06/11 09:08:27;;;;;;;15.18;2.40;;;36.50;51.50;;;;;;5008797;28;20184;-48
2022/06/11 09:11:03;;;;;;;10.98;2.72;;;36.70;50.80;;;;;;5008912;28;20038;-43
2022/06/11 09:13:44;;;;;;;13.82;2.55;;;37.60;49.40;;;;;;5007794;28;20052;-42
2022/06/11 09:16:29;;;;;;;8.65;2.55;;;37.70;48.30;;;;;;5008083;28;20580;-43
2022/06/11 09:19:22;;;;;;;11.32;2.40;;;37.90;47.30;;;;;;5008640;28;20563;-44
2022/06/11 09:22:31;;;;;;;10.02;2.47;;;38.10;48.80;;;;;;5008498;28;20103;-44
2022/06/11 09:25:26;;;;;;;10.45;2.70;;;38.80;48.30;;;;;;5008973;28;20045;-43
2022/06/11 09:28:10;;;;;;;11.45;3.17;;;39.10;45.90;;;;;;5008628;28;20497;-43
2022/06/11 09:30:43;;;;;;;9.25;2.38;;;39.90;46.10;;;;;;5008741;28;20042;-43
2022/06/11 09:33:16;;;;;;;10.43;2.55;;;39.60;45.30;;;;;;5008669;28;20044;-44
2022/06/11 09:36:04;;;;;;;11.55;2.80;;;39.20;44.80;;;;;;5008579;28;20042;-47
2022/06/11 09:38:58;;;;;;;11.50;2.05;;;38.90;45.60;;;;;;5008567;28;20394;-43
2022/06/11 09:41:56;;;;;;;13.30;2.55;;;39.10;46.50;;;;;;5023399;28;20096;-43
2022/06/11 09:44:33;;;;;;;12.02;2.85;;;39.40;45.00;;;;;;5007697;28;20390;-42
2022/06/11 09:47:09;;;;;;;13.00;2.88;;;40.20;43.70;;;;;;5008284;28;20512;-41
2022/06/11 09:50:04;;;;;;;8.70;2.10;;;40.80;43.30;;;;;;5008143;28;20054;-41
2022/06/11 09:53:00;;;;;;;9.77;1.92;;;41.60;43.80;;;;;;5007674;28;20337;-43
2022/06/11 09:55:38;;;;;;;7.15;2.15;;;41.70;43.60;;;;;;5008023;28;20037;-41
2022/06/11 09:58:28;;;;;;;8.70;2.08;;;41.80;41.90;;;;;;5008440;28;20077;-43
2022/06/11 10:00:59;;;;;;;8.30;2.15;;;41.20;42.00;;;;;;5008688;28;20056;-41
2022/06/11 10:03:36;;;;;;;9.60;2.30;;;40.80;42.00;;;;;;5008158;28;20046;-42
2022/06/11 10:06:10;;;;;;;8.82;2.28;;;40.50;41.30;;;;;;5008546;28;20049;-41
2022/06/11 10:08:50;;;;;;;8.35;2.10;;;39.90;40.10;;;;;;5007993;28;20058;-41
2022/06/11 10:11:19;;;;;;;;;;;39.90;41.50;;;;;;5008686;28;20038;-42
2022/06/11 10:14:37;;;;;;;9.40;2.00;;;40.00;44.10;;;;;;5008234;28;19917;-41
2022/06/11 10:17:10;;;;;;;7.88;1.83;;;40.00;42.50;;;;;;5007675;28;20532;-41
2022/06/11 10:20:08;;;;;;;20.42;5.75;;;39.50;40.90;;;;;;5007858;28;20512;-41
2022/06/11 10:22:46;;;;;;;10.57;2.17;;;39.30;40.80;;;;;;5008068;28;20048;-41
2022/06/11 10:25:11;;;;;;;6.57;1.58;;;38.80;40.30;;;;;;5009660;28;20104;-41
2022/06/11 10:28:04;;;;;;;12.93;3.45;;;38.10;39.90;;;;;;5011535;28;20046;-40
2022/06/11 10:30:50;;;;;;;8.05;1.42;;;37.10;41.20;;;;;;5010941;28;20045;-41
2022/06/11 10:33:33;;;;;;;7.03;1.75;;;36.20;40.60;;;;;;5011530;28;20109;-41
2022/06/11 10:36:25;;;;;;;9.38;1.58;;;36.00;44.80;;;;;;5011568;28;20054;-42
2022/06/11 10:38:58;;;;;;;7.80;1.33;;;36.10;42.90;;;;;;5011465;28;20516;-40
2022/06/11 10:41:29;;;;;;;7.68;1.65;;;36.10;42.50;;;;;;5011252;28;20044;-40
2022/06/11 10:44:13;;;;;;;7.43;1.83;;;36.40;43.10;;;;;;5011573;28;20048;-41
2022/06/11 10:46:39;;;;;;;7.30;1.35;;;36.80;41.90;;;;;;5010475;28;20052;-41
2022/06/11 10:49:11;;;;;;;8.43;1.63;;;;;;;;;;5011170;28;20042;-41
2022/06/11 10:51:38;;;;;;;6.78;1.30;;;36.70;39.90;;;;;;5010775;28;20080;-42
2022/06/11 10:54:17;;;;;;;8.85;1.73;;;35.70;41.60;;;;;;5011395;28;20058;-41
2022/06/11 10:56:49;;;;;;;9.30;1.55;;;34.70;43.00;;;;;;5010881;28;20049;-41
2022/06/11 10:59:42;;;;;;;8.50;1.45;;;33.50;45.30;;;;;;5011155;28;20046;-40
2022/06/11 11:02:33;;;;;;;9.65;1.63;;;32.00;46.10;;;;;;5011154;28;20046;-40
2022/06/11 11:05:07;;;;;;;10.55;2.10;;;30.90;47.80;;;;;;5011099;28;20042;-41
2022/06/11 11:07:57;;;;;;;9.80;1.88;;;30.20;50.20;;;;;;5010924;28;20121;-41
2022/06/11 11:10:35;;;;;;;7.90;1.60;;;29.60;63.60;;;;;;5011260;28;20049;-41
2022/06/11 11:13:05;;;;;;;9.32;1.83;;;28.90;53.50;;;;;;5009382;28;20042;-40
2022/06/11 11:15:46;;;;;;;6.07;1.20;;;28.00;53.80;;;;;;5010844;28;20520;-40
2022/06/11 11:18:19;;;;;;;9.85;2.08;;;27.50;55.20;;;;;;5010805;28;20501;-40
2022/06/11 11:20:48;;;;;;;8.75;1.92;;;27.20;55.10;;;;;;5010905;28;20120;-40
2022/06/11 11:23:15;;;;;;;8.35;1.55;;;27.00;56.00;;;;;;5010799;28;20049;-44
2022/06/11 11:25:53;;;;;;;9.52;1.98;;;26.50;55.50;;;;;;5010758;28;20088;-40
2022/06/11 11:28:50;;;;;;;10.52;1.48;;;26.20;57.00;;;;;;5011035;28;20049;-40
2022/06/11 11:31:23;;;;;;;10.77;1.92;;;26.10;58.80;;;;;;5009810;28;20064;-40
2022/06/11 11:34:18;;;;;;;11.68;1.92;;;26.00;58.40;;;;;;5010812;28;20414;-41
2022/06/11 11:36:45;;;;;;;10.35;1.95;;;26.00;57.60;;;;;;5008931;28;20053;-41
2022/06/11 11:39:13;;;;;;;10.85;1.92;;;25.90;58.10;;;;;;5010456;28;20559;-41
2022/06/11 11:42:09;;;;;;;7.93;1.55;;;25.70;58.20;;;;;;5009970;28;20100;-42
2022/06/11 11:44:42;;;;;;;8.45;1.90;;;25.60;58.30;;;;;;5010690;28;20050;-40
2022/06/11 11:47:20;;;;;;;9.82;1.77;;;25.60;58.30;;;;;;5010638;28;20045;-42
2022/06/11 11:50:06;;;;;;;12.75;2.70;;;25.80;58.80;;;;;;5010510;28;20042;-41
2022/06/11 11:52:38;;;;;;;10.90;1.73;;;25.90;57.60;;;;;;5010212;28;20398;-41
2022/06/11 11:55:16;;;;;;;9.02;1.48;;;26.00;56.00;;;;;;5010178;28;20038;-40
2022/06/11 11:58:00;;;;;;;10.13;1.95;;;26.00;56.10;;;;;;5009903;28;20042;-39
2022/06/11 12:00:28;;;;;;;7.45;1.40;;;24.10;56.20;;;;;;5009920;28;20046;-40
2022/06/11 12:02:59;;;;;;;11.77;2.08;;;25.60;58.00;;;;;;5010251;28;20394;-39
2022/06/11 12:05:46;;;;;;;7.23;1.30;;;25.30;58.80;;;;;;5010180;28;20287;-39
2022/06/11 12:08:20;;;;;;;8.25;1.63;;;25.00;59.40;;;;;;5010192;28;20136;-39
2022/06/11 12:10:49;;;;;;;8.63;1.70;;;24.80;60.10;;;;;;5009456;28;20050;-40
2022/06/11 12:13:21;;;;;;;11.60;1.75;;;24.70;61.50;;;;;;5009590;28;20053;-39
2022/06/11 12:15:55;;;;;;;11.20;2.30;;;24.80;75.60;;;;;;5009859;28;20037;-39
2022/06/11 12:18:27;;;;;;;10.70;1.90;;;24.80;76.00;;;;;;5009546;28;20062;-39
2022/06/11 12:20:58;;;;;;;8.10;1.77;;;24.70;77.30;;;;;;5008882;28;20097;-40
2022/06/11 12:24:02;;;;;;;9.50;1.80;;;24.60;76.60;;;;;;5008947;28;20044;-39
2022/06/11 12:26:32;;;;;;;12.30;2.28;;;24.50;71.50;;;;;;5006321;28;20146;-40
2022/06/11 12:29:37;;;;;;;11.10;1.92;;;24.50;73.70;;;;;;5006033;28;20081;-38
2022/06/11 12:32:21;;;;;;;9.63;1.45;;;24.40;72.50;;;;;;4978600;28;20057;-39
2022/06/11 12:34:47;;;;;;;10.23;2.15;;;24.40;72.70;;;;;;5008984;28;20073;-39
2022/06/11 12:37:24;;;;;;;11.18;2.13;;;24.50;71.10;;;;;;5008915;28;20046;-38
2022/06/11 12:40:23;;;;;;;7.50;1.58;;;24.30;69.70;;;;;;5008861;28;20080;-38
2022/06/11 12:42:58;;;;;;;7.05;0.93;;;24.40;69.40;;;;;;5008637;28;20038;-39
2022/06/11 12:45:32;;;;;;;7.60;1.60;;;24.40;68.80;;;;;;5008676;28;20489;-39
2022/06/11 12:48:16;;;;;;;10.43;3.00;;;24.30;69.30;;;;;;5008176;28;20046;-39
2022/06/11 12:51:14;;;;;;;7.32;1.40;;;24.20;65.70;;;;;;5008708;28;20108;-39
2022/06/11 12:53:54;;;;;;;8.55;1.63;;;24.00;68.40;;;;;;5007615;28;20046;-39
2022/06/11 12:56:30;;;;;;;9.35;1.48;;;23.70;74.00;;;;;;5008685;28;20041;-40
2022/06/11 12:59:10;;;;;;;6.85;1.40;;;23.60;73.10;;;;;;5008026;28;20626;-39
2022/06/11 13:01:56;;;;;;;14.10;1.70;;;23.70;72.70;;;;;;5008596;28;20038;-38
2022/06/11 13:04:49;;;;;;;11.45;2.83;;;23.60;77.40;;;;;;5008044;28;20050;-38
2022/06/11 13:07:51;;;;;;;10.80;1.92;;;23.50;69.10;;;;;;5006680;28;20049;-38
2022/06/11 13:10:20;;;;;;;8.98;1.48;;;23.60;67.60;;;;;;5007900;28;20405;-39
2022/06/11 13:13:04;;;;;;;12.90;1.58;;;23.50;70.20;;;;;;5007672;28;20374;-39
2022/06/11 13:15:48;;;;;;;11.32;1.65;;;23.60;71.90;;;;;;5007963;28;20041;-39